Time;durP1;ratioP1;P1;durP2;ratioP2;P2;SDS_P1;SDS_P2;PMS_P1;PMS_P2;Temp;Humidity;BMP_temperature;BMP_pressure;BME280_temperature;BME280_humidity;BME280_pressure;Samples;Min_cycle;Max_cycle;Signal;HPM_P1;HPM_P2
2022/01/23 00:02:10;;;;;;;1.73;1.20;;;20.80;47.00;;;;;;5087780;28;20027;-46
2022/01/23 00:04:36;;;;;;;1.48;1.10;;;20.90;47.00;;;;;;5088210;28;20595;-46
2022/01/23 00:07:05;;;;;;;1.25;1.10;;;20.80;46.50;;;;;;5104728;28;20020;-44
2022/01/23 00:09:32;;;;;;;1.42;1.20;;;20.80;46.50;;;;;;5086839;28;20113;-46
2022/01/23 00:12:02;;;;;;;1.25;1.10;;;20.80;46.50;;;;;;5104478;28;20032;-47
2022/01/23 00:17:20;;;;;;;1.27;0.98;;;20.70;46.40;;;;;;5104329;28;20050;-47
2022/01/23 00:19:52;;;;;;;1.80;1.13;;;20.70;46.30;;;;;;5104155;28;20522;-49
2022/01/23 00:22:25;;;;;;;1.25;1.05;;;20.80;46.60;;;;;;5104257;28;20062;-48
2022/01/23 00:30:25;;;;;;;2.45;1.10;;;20.90;46.20;;;;;;5102256;28;20039;-46
2022/01/23 00:32:52;;;;;;;1.42;1.13;;;20.80;46.10;;;;;;5088699;28;20079;-46
2022/01/23 00:35:18;;;;;;;1.00;0.90;;;20.80;46.00;;;;;;5103049;28;20032;-45
2022/01/23 00:37:44;;;;;;;1.27;1.10;;;20.80;46.00;;;;;;5106672;28;20020;-48
2022/01/23 00:40:11;;;;;;;1.38;1.25;;;20.80;46.10;;;;;;5105981;28;20028;-47
2022/01/23 00:42:37;;;;;;;2.00;1.35;;;20.80;46.20;;;;;;5124345;28;20030;-44
2022/01/23 00:47:45;;;;;;;1.73;1.27;;;20.90;46.00;;;;;;5124277;28;20028;-50
2022/01/23 00:50:11;;;;;;;1.67;1.30;;;20.80;46.00;;;;;;5105545;28;20157;-47
2022/01/23 00:52:37;;;;;;;1.50;1.40;;;20.80;46.00;;;;;;5103198;28;20031;-46
2022/01/23 00:55:04;;;;;;;1.65;1.38;;;20.80;45.80;;;;;;5109336;28;20480;-49
2022/01/23 00:57:31;;;;;;;;;;;20.80;46.00;;;;;;5124361;28;20083;-49
2022/01/23 00:59:57;;;;;;;1.63;1.30;;;20.80;46.00;;;;;;5123800;28;19931;-46
2022/01/23 01:02:23;;;;;;;1.52;1.40;;;20.80;46.00;;;;;;5085215;28;20420;-48
2022/01/23 01:04:49;;;;;;;1.83;1.40;;;20.80;45.90;;;;;;5083145;28;20052;-46
2022/01/23 01:07:15;;;;;;;1.25;1.15;;;20.80;45.80;;;;;;5083055;28;20032;-47
2022/01/23 01:09:47;;;;;;;1.20;1.10;;;20.80;45.80;;;;;;5082900;28;20031;-47
2022/01/23 01:12:19;;;;;;;2.00;1.38;;;20.80;45.80;;;;;;5082603;28;20031;-46
2022/01/23 01:33:57;;;;;;;1.38;1.20;;;20.70;45.60;;;;;;5103063;28;20080;-45
2022/01/23 01:36:28;;;;;;;1.55;1.25;;;20.70;45.70;;;;;;5097821;28;20082;-49
2022/01/23 01:38:54;;;;;;;1.60;1.40;;;20.80;45.80;;;;;;5103077;28;20577;-46
2022/01/23 01:41:21;;;;;;;1.50;1.33;;;20.80;45.60;;;;;;5084488;28;20020;-48
2022/01/23 01:43:47;;;;;;;;;;;20.80;45.60;;;;;;5103441;28;20054;-45
2022/01/23 01:46:13;;;;;;;1.48;1.27;;;20.80;45.50;;;;;;5102490;28;19904;-46
2022/01/23 01:48:40;;;;;;;1.48;1.23;;;20.70;45.50;;;;;;5091733;28;20028;-46
2022/01/23 01:51:11;;;;;;;1.60;1.30;;;20.70;45.60;;;;;;5102768;28;20485;-45
2022/01/23 01:53:37;;;;;;;1.63;1.30;;;20.70;45.60;;;;;;5102809;28;20036;-45
2022/01/23 01:56:06;;;;;;;1.60;1.40;;;20.80;45.70;;;;;;5102538;28;20032;-45
2022/01/23 02:09:34;;;;;;;1.88;1.38;;;20.70;45.50;;;;;;5082434;28;20043;-44
2022/01/23 02:14:57;;;;;;;2.80;1.70;;;20.70;45.70;;;;;;5114815;28;20063;-44
2022/01/23 02:50:50;;;;;;;1.70;1.60;;;20.60;45.50;;;;;;5105945;28;20104;-45
2022/01/23 02:56:12;;;;;;;1.77;1.27;;;20.70;45.40;;;;;;5105151;28;20038;-44
2022/01/23 02:58:54;;;;;;;1.90;1.50;;;20.70;45.30;;;;;;5105588;28;20024;-45
2022/01/23 03:01:21;;;;;;;2.15;1.60;;;20.70;45.30;;;;;;5104403;28;20028;-48
2022/01/23 03:03:57;;;;;;;2.03;1.55;;;20.60;45.30;;;;;;5122350;28;20051;-43
2022/01/23 03:25:01;;;;;;;2.42;1.77;;;20.30;45.20;;;;;;5069355;28;20051;-47
2022/01/23 03:32:45;;;;;;;2.13;1.73;;;20.10;45.30;;;;;;5083428;28;20203;-47
2022/01/23 03:35:06;;;;;;;2.15;1.92;;;20.10;45.70;;;;;;5083859;28;20056;-47
2022/01/23 03:37:32;;;;;;;2.47;2.05;;;20.00;45.10;;;;;;5083187;28;20032;-46
2022/01/23 03:39:59;;;;;;;2.58;1.90;;;20.00;45.10;;;;;;5084166;28;20493;-45
2022/01/23 03:42:26;;;;;;;2.42;1.98;;;19.90;45.20;;;;;;5084235;28;20025;-44
2022/01/23 03:45:15;;;;;;;;;;;19.90;45.30;;;;;;5084992;28;20067;-47
2022/01/23 03:47:52;;;;;;;2.38;2.00;;;19.80;45.20;;;;;;5100430;28;19908;-45
2022/01/23 03:50:18;;;;;;;2.33;2.13;;;19.80;45.30;;;;;;5085726;28;20032;-46
2022/01/23 03:52:44;;;;;;;3.47;2.25;;;19.70;45.20;;;;;;5083758;28;20035;-44
2022/01/23 03:55:11;;;;;;;2.60;2.28;;;19.60;45.10;;;;;;5083932;28;20033;-45
2022/01/23 03:57:37;;;;;;;2.33;2.03;;;19.60;45.30;;;;;;5065940;28;20123;-45
2022/01/23 04:00:04;;;;;;;2.78;2.15;;;19.60;45.30;;;;;;5084209;28;20090;-44
2022/01/23 04:02:30;;;;;;;3.30;2.50;;;19.50;45.20;;;;;;5083187;28;20088;-44
2022/01/23 04:04:57;;;;;;;2.97;2.45;;;19.50;45.30;;;;;;5083917;28;20024;-44
2022/01/23 04:07:26;;;;;;;3.05;2.70;;;19.40;45.30;;;;;;5083474;28;20020;-43
2022/01/23 04:09:52;;;;;;;3.22;2.45;;;19.40;45.40;;;;;;5085526;28;20027;-44
2022/01/23 04:15:09;;;;;;;3.53;2.40;;;19.30;45.50;;;;;;5103860;28;20556;-43
2022/01/23 04:34:00;;;;;;;3.65;2.53;;;18.90;45.50;;;;;;5083304;28;20035;-44
2022/01/23 05:00:58;;;;;;;2.97;2.42;;;18.30;46.10;;;;;;5116570;28;20030;-44
2022/01/23 05:06:10;;;;;;;3.58;2.90;;;18.20;46.70;;;;;;5105231;28;20023;-47
2022/01/23 05:08:37;;;;;;;3.13;2.50;;;18.10;46.20;;;;;;5102761;28;20035;-44
2022/01/23 05:11:06;;;;;;;3.78;2.92;;;18.00;46.20;;;;;;5103219;28;20020;-44
2022/01/23 05:13:32;;;;;;;3.88;2.80;;;17.90;46.40;;;;;;5084612;28;20059;-46
2022/01/23 05:15:58;;;;;;;4.10;2.97;;;17.90;46.40;;;;;;5102261;28;20040;-44
2022/01/23 05:18:24;;;;;;;2.85;2.53;;;17.80;46.30;;;;;;5102297;28;20074;-44
2022/01/23 05:21:01;;;;;;;2.85;2.53;;;17.80;46.40;;;;;;5110989;28;20015;-44
2022/01/23 05:23:28;;;;;;;3.63;2.90;;;17.70;46.50;;;;;;5123143;28;20104;-44
2022/01/23 05:25:54;;;;;;;3.35;2.88;;;17.70;46.60;;;;;;5105141;28;20020;-44
2022/01/23 05:28:20;;;;;;;3.88;3.03;;;17.60;46.70;;;;;;5102796;28;20020;-44
2022/01/23 05:30:46;;;;;;;3.00;2.60;;;17.60;46.70;;;;;;5101556;28;20032;-45
2022/01/23 05:33:12;;;;;;;2.85;2.50;;;17.50;46.70;;;;;;5102860;28;20048;-43
2022/01/23 05:35:38;;;;;;;3.03;2.72;;;17.40;46.70;;;;;;5102547;28;20066;-45
2022/01/23 05:38:04;;;;;;;3.35;2.72;;;17.40;46.80;;;;;;5102475;28;20020;-44
2022/01/23 05:40:30;;;;;;;3.33;2.85;;;17.40;46.90;;;;;;5101345;28;20021;-44
2022/01/23 05:42:56;;;;;;;3.45;3.00;;;17.30;47.00;;;;;;5102234;28;20047;-44
2022/01/23 05:45:23;;;;;;;3.45;2.90;;;17.20;46.90;;;;;;5104768;28;20032;-45
2022/01/23 05:47:49;;;;;;;3.42;3.08;;;17.20;47.10;;;;;;5102627;28;20048;-48
2022/01/23 05:50:15;;;;;;;3.50;2.95;;;17.10;47.20;;;;;;5102367;28;20031;-46
2022/01/23 05:52:41;;;;;;;4.93;2.85;;;17.10;47.20;;;;;;5102708;28;20569;-45
2022/01/23 05:55:07;;;;;;;4.07;2.95;;;17.00;47.80;;;;;;5101954;28;20032;-44
2022/01/23 05:57:33;;;;;;;4.28;3.15;;;17.00;47.30;;;;;;5084155;28;20020;-46
2022/01/23 05:59:59;;;;;;;3.83;3.08;;;17.00;47.40;;;;;;5104113;28;20024;-46
2022/01/23 06:02:25;;;;;;;3.60;2.90;;;16.90;47.30;;;;;;5106189;28;20024;-47
2022/01/23 06:04:51;;;;;;;4.43;3.33;;;16.90;47.40;;;;;;5106035;28;20706;-44
2022/01/23 06:07:18;;;;;;;4.95;3.13;;;16.80;47.50;;;;;;5106305;28;20111;-45
2022/01/23 06:09:44;;;;;;;4.35;3.30;;;16.80;47.60;;;;;;5105809;28;20024;-46
2022/01/23 06:12:10;;;;;;;3.58;2.83;;;16.70;47.60;;;;;;5118049;28;20023;-45
2022/01/23 06:14:36;;;;;;;3.60;3.13;;;16.70;47.70;;;;;;5126360;28;20066;-44
2022/01/23 06:17:03;;;;;;;4.47;3.17;;;16.60;47.60;;;;;;5126368;28;20047;-44
2022/01/23 06:19:29;;;;;;;3.60;2.95;;;16.60;47.70;;;;;;5114377;28;20028;-43
2022/01/23 06:21:55;;;;;;;3.40;3.10;;;16.50;47.70;;;;;;5106081;28;20089;-47
2022/01/23 06:24:26;;;;;;;4.40;3.15;;;16.50;47.90;;;;;;5105756;28;20028;-47
2022/01/23 06:26:54;;;;;;;4.35;3.22;;;16.40;47.80;;;;;;5105908;28;20036;-44
2022/01/23 06:29:20;;;;;;;3.65;2.80;;;16.40;48.00;;;;;;5105491;28;20048;-43
2022/01/23 06:31:47;;;;;;;3.20;2.90;;;16.40;48.00;;;;;;5091675;28;20124;-43
2022/01/23 06:34:13;;;;;;;4.00;3.03;;;16.40;48.00;;;;;;5092135;28;20027;-44
2022/01/23 06:36:40;;;;;;;5.93;2.80;;;16.30;47.90;;;;;;5126143;28;20032;-43
2022/01/23 06:39:08;;;;;;;4.20;3.28;;;16.30;48.00;;;;;;5126170;28;20028;-44
2022/01/23 06:41:34;;;;;;;3.45;3.00;;;16.30;48.00;;;;;;5125794;28;20047;-44
2022/01/23 06:44:00;;;;;;;4.50;3.37;;;16.20;48.10;;;;;;5107866;28;20016;-45
2022/01/23 06:46:27;;;;;;;3.75;3.20;;;16.10;48.20;;;;;;5125828;28;20766;-46
2022/01/23 06:48:53;;;;;;;4.43;3.42;;;16.10;48.20;;;;;;5119154;28;20032;-44
2022/01/23 06:51:19;;;;;;;3.72;3.38;;;16.00;48.30;;;;;;5112907;28;20078;-44
2022/01/23 06:53:45;;;;;;;4.43;3.40;;;16.00;48.30;;;;;;5125681;28;20031;-45
2022/01/23 06:56:11;;;;;;;3.90;3.15;;;16.00;48.40;;;;;;5105590;28;20055;-45
2022/01/23 06:58:37;;;;;;;3.55;3.08;;;16.00;48.30;;;;;;5105279;28;20035;-44
2022/01/23 07:01:07;;;;;;;3.83;3.33;;;16.00;48.30;;;;;;5106971;28;20089;-44
2022/01/23 07:03:34;;;;;;;4.00;3.58;;;16.10;48.30;;;;;;5105146;28;20020;-46
2022/01/23 07:06:00;;;;;;;3.83;3.25;;;16.10;48.30;;;;;;5104717;28;20016;-45
2022/01/23 07:08:27;;;;;;;4.63;3.38;;;16.00;48.30;;;;;;5105002;28;20546;-45
2022/01/23 07:10:53;;;;;;;4.60;3.55;;;16.00;48.30;;;;;;5104536;28;20020;-45
2022/01/23 07:13:19;;;;;;;4.10;2.90;;;16.00;48.40;;;;;;5125181;28;20043;-43
2022/01/23 07:15:46;;;;;;;4.32;3.50;;;15.90;48.30;;;;;;5125173;28;20039;-44
2022/01/23 07:18:12;;;;;;;4.05;3.20;;;16.00;48.40;;;;;;5124169;28;20019;-44
2022/01/23 07:20:38;;;;;;;3.95;3.00;;;16.00;48.50;;;;;;5104786;28;20031;-47
2022/01/23 07:23:04;;;;;;;3.47;2.60;;;16.00;48.40;;;;;;5104856;28;20498;-43
2022/01/23 07:25:30;;;;;;;3.63;2.90;;;16.00;48.40;;;;;;5104640;28;20027;-43
2022/01/23 07:27:58;;;;;;;3.28;2.85;;;15.90;48.50;;;;;;5104486;28;20032;-46
2022/01/23 07:30:35;;;;;;;3.45;2.85;;;15.80;48.50;;;;;;5103281;28;20385;-45
2022/01/23 07:33:01;;;;;;;3.55;2.90;;;15.80;48.50;;;;;;5104409;28;20033;-44
2022/01/23 07:35:28;;;;;;;3.60;3.15;;;15.90;48.70;;;;;;5104642;28;20096;-45
2022/01/23 07:37:54;;;;;;;3.65;3.05;;;15.90;48.60;;;;;;5102953;28;20020;-43
2022/01/23 07:40:20;;;;;;;5.40;3.10;;;15.90;48.60;;;;;;5119328;28;20031;-45
2022/01/23 07:42:46;;;;;;;3.95;3.10;;;15.90;48.60;;;;;;5124871;28;20049;-44
2022/01/23 07:45:12;;;;;;;4.00;2.90;;;15.90;48.60;;;;;;5124787;28;20024;-43
2022/01/23 07:47:38;;;;;;;3.55;2.97;;;15.80;48.60;;;;;;5124726;28;20027;-45
2022/01/23 07:50:07;;;;;;;5.78;3.03;;;15.80;48.70;;;;;;5107970;28;20039;-45
2022/01/23 07:52:35;;;;;;;4.25;3.10;;;15.90;48.90;;;;;;5104086;28;20054;-43
2022/01/23 07:55:11;;;;;;;3.40;2.78;;;15.90;48.80;;;;;;5085970;28;20032;-45
2022/01/23 07:57:37;;;;;;;3.65;2.88;;;15.90;48.70;;;;;;5104260;28;20035;-43
2022/01/23 08:00:07;;;;;;;4.13;3.20;;;15.80;48.70;;;;;;5104211;28;20020;-45
2022/01/23 08:02:34;;;;;;;4.03;3.00;;;15.80;48.70;;;;;;5083373;28;20017;-43
2022/01/23 08:05:00;;;;;;;3.95;3.17;;;15.80;48.70;;;;;;5083553;28;20027;-45
2022/01/23 08:09:59;;;;;;;3.17;2.45;;;15.90;48.90;;;;;;5095012;28;20028;-43
2022/01/23 08:12:26;;;;;;;4.00;2.88;;;15.80;48.70;;;;;;5101705;28;20032;-43
2022/01/23 08:14:52;;;;;;;4.63;3.22;;;15.80;48.70;;;;;;5065626;28;20040;-45
2022/01/23 08:17:19;;;;;;;4.23;3.20;;;15.80;48.70;;;;;;5091908;28;20020;-46
2022/01/23 08:19:46;;;;;;;3.90;3.08;;;15.80;48.70;;;;;;5089593;28;20327;-47
2022/01/23 08:22:12;;;;;;;3.38;3.00;;;15.80;48.80;;;;;;5064548;28;20078;-45
2022/01/23 08:24:38;;;;;;;3.28;2.83;;;15.80;49.00;;;;;;5083316;28;20025;-44
2022/01/23 08:27:04;;;;;;;3.30;2.70;;;15.90;49.10;;;;;;5083322;28;20028;-45
2022/01/23 08:29:31;;;;;;;3.05;2.75;;;15.90;48.90;;;;;;5083130;28;20036;-49
2022/01/23 08:31:57;;;;;;;2.92;2.50;;;15.90;48.90;;;;;;5081982;28;20025;-48
2022/01/23 08:34:23;;;;;;;3.78;2.80;;;15.80;48.80;;;;;;5083396;28;20036;-49
2022/01/23 08:36:49;;;;;;;3.10;2.78;;;15.80;48.80;;;;;;5083214;28;20024;-48
2022/01/23 08:39:17;;;;;;;2.97;2.55;;;15.80;48.90;;;;;;5110577;28;20015;-46
2022/01/23 08:41:49;;;;;;;3.38;2.90;;;15.80;49.10;;;;;;5123733;28;20046;-45
2022/01/23 08:44:19;;;;;;;2.88;2.58;;;15.90;49.10;;;;;;5123726;28;20388;-43
2022/01/23 08:46:46;;;;;;;4.47;3.03;;;15.80;48.90;;;;;;5123570;28;20032;-46
2022/01/23 08:49:12;;;;;;;3.60;2.47;;;15.80;48.90;;;;;;5114049;28;20028;-48
2022/01/23 08:51:38;;;;;;;3.30;2.88;;;15.80;48.80;;;;;;5103311;28;20078;-48
2022/01/23 08:54:05;;;;;;;4.43;3.20;;;15.80;48.90;;;;;;5102818;28;20089;-44
2022/01/23 08:56:31;;;;;;;3.10;2.80;;;15.80;49.00;;;;;;5084554;28;20097;-46
2022/01/23 08:58:57;;;;;;;2.75;2.53;;;15.80;49.10;;;;;;5114926;28;20031;-45
2022/01/23 09:01:24;;;;;;;2.80;2.60;;;15.90;49.00;;;;;;5111673;28;20035;-44
2022/01/23 09:03:50;;;;;;;3.10;2.67;;;15.90;48.90;;;;;;5103107;28;20063;-46
2022/01/23 09:06:16;;;;;;;3.25;2.35;;;15.80;48.80;;;;;;5103148;28;20032;-47
2022/01/23 09:08:43;;;;;;;3.90;3.17;;;15.80;48.80;;;;;;5102906;28;20772;-48
2022/01/23 09:11:38;;;;;;;3.03;2.72;;;15.80;48.80;;;;;;5102902;28;20054;-44
2022/01/23 09:14:07;;;;;;;3.30;2.83;;;15.80;48.90;;;;;;5102424;28;20047;-44
2022/01/23 09:16:38;;;;;;;3.30;2.60;;;15.80;49.10;;;;;;5102695;28;20032;-44
2022/01/23 09:19:05;;;;;;;2.95;2.38;;;15.90;49.00;;;;;;5102703;28;20039;-44
2022/01/23 09:21:31;;;;;;;3.30;2.60;;;15.80;48.90;;;;;;5102718;28;20032;-44
2022/01/23 09:23:57;;;;;;;5.13;2.90;;;15.80;48.90;;;;;;5102448;28;20139;-43
2022/01/23 09:26:24;;;;;;;3.03;2.45;;;15.80;48.90;;;;;;5102897;28;20039;-44
2022/01/23 09:28:53;;;;;;;2.47;1.98;;;15.80;48.90;;;;;;5102090;28;20034;-43
2022/01/23 09:31:53;;;;;;;2.60;2.25;;;15.80;49.10;;;;;;5111249;28;20073;-43
2022/01/23 09:34:11;;;;;;;2.95;2.60;;;15.90;49.20;;;;;;5098661;28;20044;-47
2022/01/23 09:36:37;;;;;;;3.42;2.72;;;15.90;49.00;;;;;;5102749;28;20058;-44
2022/01/23 09:39:04;;;;;;;3.17;2.70;;;15.90;48.90;;;;;;5102614;28;20031;-45
2022/01/23 09:41:31;;;;;;;3.80;2.95;;;15.80;48.80;;;;;;5102446;28;20091;-44
2022/01/23 09:43:57;;;;;;;3.63;2.80;;;15.80;49.00;;;;;;5102498;28;20016;-43
2022/01/23 09:46:24;;;;;;;3.40;2.67;;;15.90;49.30;;;;;;5101435;28;20028;-46
2022/01/23 09:48:52;;;;;;;3.05;2.75;;;16.00;49.30;;;;;;5102519;28;20086;-45
2022/01/23 09:51:23;;;;;;;3.05;2.50;;;16.10;49.40;;;;;;5084714;28;20040;-44
2022/01/23 09:53:52;;;;;;;2.95;2.42;;;16.20;49.40;;;;;;5084037;28;20393;-45
2022/01/23 09:56:26;;;;;;;3.08;2.45;;;16.30;49.60;;;;;;5102503;28;20028;-45
2022/01/23 09:58:53;;;;;;;4.25;2.20;;;16.40;49.70;;;;;;5102367;28;20469;-43
2022/01/23 10:01:20;;;;;;;3.00;2.40;;;16.50;49.80;;;;;;5093191;28;20037;-43
2022/01/23 10:03:46;;;;;;;3.22;2.78;;;16.60;49.90;;;;;;5082040;28;20029;-45
2022/01/23 10:06:12;;;;;;;2.53;2.22;;;16.70;50.30;;;;;;5080836;28;20020;-45
2022/01/23 10:08:38;;;;;;;2.58;2.30;;;16.90;49.80;;;;;;5081750;28;20028;-43
2022/01/23 10:11:09;;;;;;;2.50;2.20;;;16.90;49.70;;;;;;5122690;28;20027;-45
2022/01/23 10:13:35;;;;;;;2.63;2.13;;;17.00;49.90;;;;;;5110815;27;20059;-45
2022/01/23 10:16:02;;;;;;;3.60;2.60;;;17.10;49.80;;;;;;5102346;28;20086;-44
2022/01/23 10:18:28;;;;;;;3.25;2.53;;;17.20;49.70;;;;;;5095582;28;20024;-48
2022/01/23 10:20:54;;;;;;;2.25;1.90;;;17.30;49.90;;;;;;5082370;28;20589;-44
2022/01/23 10:23:20;;;;;;;3.15;2.45;;;17.40;49.70;;;;;;5063756;28;20024;-47
2022/01/23 10:25:48;;;;;;;2.95;2.40;;;17.50;49.60;;;;;;5063991;28;20075;-47
2022/01/23 10:28:20;;;;;;;3.40;2.33;;;17.60;49.70;;;;;;5081967;28;20036;-48
2022/01/23 10:30:54;;;;;;;3.42;2.50;;;17.70;49.50;;;;;;5080501;28;20036;-47
2022/01/23 10:33:34;;;;;;;2.58;2.17;;;17.80;49.40;;;;;;5080425;28;20020;-44
2022/01/23 10:36:26;;;;;;;2.45;2.17;;;17.90;49.40;;;;;;5081953;28;20091;-48
2022/01/23 10:38:58;;;;;;;2.65;2.28;;;18.00;49.20;;;;;;5078414;28;20037;-46
2022/01/23 10:41:48;;;;;;;3.15;2.30;;;18.20;49.60;;;;;;5082080;28;20017;-47
2022/01/23 10:47:31;;;;;;;2.63;2.20;;;18.40;49.00;;;;;;5084886;28;20027;-47
2022/01/23 10:50:02;;;;;;;2.30;2.10;;;18.50;48.90;;;;;;5091133;28;20114;-46
2022/01/23 10:52:35;;;;;;;2.80;2.35;;;18.60;48.90;;;;;;5085277;28;20034;-44
2022/01/23 10:55:06;;;;;;;2.35;2.00;;;18.70;48.60;;;;;;5084866;28;20025;-45
2022/01/23 10:57:43;;;;;;;2.53;2.15;;;18.80;48.70;;;;;;5067386;28;20028;-46
2022/01/23 11:00:30;;;;;;;3.20;2.75;;;19.00;48.40;;;;;;5085305;28;20020;-44
2022/01/23 11:03:15;;;;;;;2.33;2.03;;;19.00;48.50;;;;;;5065093;28;20057;-45
2022/01/23 11:05:41;;;;;;;2.75;2.45;;;19.10;48.30;;;;;;5065061;28;20040;-44
2022/01/23 11:08:27;;;;;;;3.72;2.05;;;19.20;48.30;;;;;;5065187;28;20101;-45
2022/01/23 11:10:57;;;;;;;2.67;2.10;;;19.30;48.00;;;;;;5084173;28;20024;-46
2022/01/23 11:19:27;;;;;;;2.72;2.28;;;19.70;47.70;;;;;;5114119;28;20043;-45
2022/01/23 11:21:53;;;;;;;;;;;19.80;47.60;;;;;;5087439;28;20416;-44
2022/01/23 11:24:20;;;;;;;2.58;2.30;;;19.90;47.50;;;;;;5104976;28;19912;-44
2022/01/23 11:26:46;;;;;;;;;;;19.90;47.50;;;;;;5105543;28;20028;-46
2022/01/23 11:29:17;;;;;;;3.60;2.40;;;20.00;47.50;;;;;;5104698;28;19915;-46
2022/01/23 11:31:44;;;;;;;2.88;2.20;;;20.10;47.30;;;;;;5106313;28;20024;-45
2022/01/23 11:34:12;;;;;;;2.15;1.75;;;20.20;47.10;;;;;;5104763;28;20401;-47
2022/01/23 11:36:38;;;;;;;2.17;1.90;;;20.30;47.10;;;;;;5104991;28;20040;-47
2022/01/23 11:39:08;;;;;;;2.90;2.10;;;20.40;46.90;;;;;;5104856;28;20031;-44
2022/01/23 11:56:36;;;;;;;2.95;1.90;;;20.70;45.90;;;;;;5104288;28;20046;-45
2022/01/23 11:59:39;;;;;;;3.05;2.08;;;20.70;45.70;;;;;;5104001;28;20024;-46
2022/01/23 12:02:11;;;;;;;3.88;2.10;;;20.60;45.70;;;;;;5088856;28;20626;-45
2022/01/23 12:04:41;;;;;;;8.27;2.20;;;20.60;45.60;;;;;;5083941;28;20564;-44
2022/01/23 12:07:11;;;;;;;3.65;2.40;;;20.60;45.40;;;;;;5084070;28;20397;-45
2022/01/23 12:09:42;;;;;;;7.05;2.50;;;20.60;45.30;;;;;;5092891;28;20030;-47
2022/01/23 12:12:29;;;;;;;3.28;2.47;;;20.50;45.30;;;;;;5104328;28;20028;-45
2022/01/23 12:18:18;;;;;;;3.17;2.33;;;20.60;45.10;;;;;;5083992;28;20050;-45
2022/01/23 12:20:45;;;;;;;3.38;2.60;;;20.60;45.10;;;;;;5083548;28;20024;-45
2022/01/23 12:23:11;;;;;;;4.20;2.20;;;20.60;45.00;;;;;;5066128;28;20040;-45
2022/01/23 12:25:56;;;;;;;2.45;2.10;;;20.60;44.90;;;;;;5083332;28;20090;-46
2022/01/23 12:28:28;;;;;;;3.63;2.50;;;20.60;44.80;;;;;;5095313;28;20024;-46
2022/01/23 12:31:17;;;;;;;3.70;2.42;;;20.50;44.80;;;;;;5092190;28;20025;-45
2022/01/23 12:33:50;;;;;;;3.10;2.40;;;20.50;44.80;;;;;;5063651;28;20033;-46
2022/01/23 12:36:20;;;;;;;3.38;2.47;;;20.50;44.80;;;;;;5063550;28;20132;-45
2022/01/23 12:38:57;;;;;;;2.50;2.15;;;20.50;44.80;;;;;;5063498;28;20037;-44
2022/01/23 12:41:30;;;;;;;3.55;2.72;;;20.50;44.80;;;;;;5068132;28;20032;-45
2022/01/23 12:43:58;;;;;;;3.20;2.10;;;20.60;44.80;;;;;;5103054;28;20027;-44
2022/01/23 12:46:45;;;;;;;2.95;2.10;;;20.60;44.70;;;;;;5085284;28;20032;-46
2022/01/23 12:49:22;;;;;;;3.63;2.15;;;20.60;44.70;;;;;;5078563;28;20032;-46
2022/01/23 12:52:07;;;;;;;2.78;2.10;;;20.50;44.50;;;;;;5076469;28;20027;-49
2022/01/23 12:54:35;;;;;;;2.55;2.20;;;20.50;44.60;;;;;;5097226;28;20034;-47
2022/01/23 12:57:10;;;;;;;3.08;2.35;;;20.50;44.60;;;;;;5082890;28;20107;-46
2022/01/23 12:59:37;;;;;;;3.35;2.05;;;20.50;44.60;;;;;;5082766;28;20031;-44
2022/01/23 13:02:08;;;;;;;2.60;2.03;;;20.50;44.70;;;;;;5068167;28;20693;-48
2022/01/23 13:04:41;;;;;;;3.38;2.40;;;20.60;44.80;;;;;;5061670;28;20129;-45
2022/01/23 13:07:11;;;;;;;2.38;1.98;;;20.60;44.60;;;;;;5062700;28;20039;-46
2022/01/23 13:10:04;;;;;;;2.28;2.03;;;20.60;44.60;;;;;;5079293;28;20028;-50
2022/01/23 13:12:48;;;;;;;2.42;2.22;;;20.50;44.50;;;;;;5103024;28;20098;-46
2022/01/23 13:18:29;;;;;;;3.22;2.38;;;20.40;44.90;;;;;;5102865;28;20751;-44
2022/01/23 13:26:51;;;;;;;3.22;2.10;;;20.20;44.40;;;;;;5082830;28;20034;-43
2022/01/23 13:32:18;;;;;;;3.65;2.30;;;20.00;44.40;;;;;;5066872;28;20048;-44
2022/01/23 13:35:09;;;;;;;2.28;2.03;;;19.90;44.40;;;;;;5062374;28;20045;-43
2022/01/23 13:37:37;;;;;;;3.03;2.33;;;19.90;44.30;;;;;;5063769;28;20059;-45
2022/01/23 13:40:15;;;;;;;2.78;2.50;;;19.80;44.30;;;;;;5084489;28;20088;-43
2022/01/23 13:47:52;;;;;;;2.97;2.50;;;19.80;44.30;;;;;;5062399;28;20056;-43
2022/01/23 13:49:32;;;;;;;3.65;2.38;;;19.70;44.30;;;;;;5065366;28;20067;-44
2022/01/23 13:51:54;;;;;;;2.58;2.38;;;19.60;44.30;;;;;;5081962;28;20386;-45
2022/01/23 14:00:23;;;;;;;3.33;2.63;;;19.40;44.40;;;;;;5082323;28;20058;-45
2022/01/23 14:02:50;;;;;;;2.42;2.00;;;19.30;44.30;;;;;;5052003;28;20041;-43
2022/01/23 14:05:22;;;;;;;2.83;2.33;;;19.20;44.40;;;;;;5062282;28;20029;-44
2022/01/23 14:07:53;;;;;;;2.88;2.47;;;19.20;44.40;;;;;;5062226;28;20028;-44
2022/01/23 14:10:23;;;;;;;4.63;2.88;;;19.10;44.60;;;;;;5069813;28;20432;-44
2022/01/23 14:12:52;;;;;;;2.80;2.45;;;19.00;44.70;;;;;;5081958;28;20049;-43
2022/01/23 14:15:25;;;;;;;2.80;2.50;;;19.00;44.60;;;;;;5082011;28;20049;-44
2022/01/23 14:18:11;;;;;;;2.60;2.40;;;19.00;44.70;;;;;;5081765;28;20047;-45
2022/01/23 14:20:45;;;;;;;2.83;2.28;;;18.90;44.60;;;;;;5063132;28;20039;-43
2022/01/23 14:23:20;;;;;;;2.95;2.30;;;18.80;44.70;;;;;;5065989;28;20025;-43
2022/01/23 14:25:53;;;;;;;2.78;2.50;;;18.80;44.90;;;;;;5065777;28;20037;-43
2022/01/23 14:28:21;;;;;;;3.13;2.45;;;18.70;44.80;;;;;;5065624;28;20035;-43
2022/01/23 14:30:49;;;;;;;2.90;2.47;;;18.70;44.70;;;;;;5070228;28;20028;-43
2022/01/23 14:33:18;;;;;;;2.55;2.13;;;18.60;44.80;;;;;;5088051;28;20033;-46
2022/01/23 14:35:44;;;;;;;2.88;2.40;;;18.60;44.80;;;;;;5085990;28;20036;-43
2022/01/23 14:38:12;;;;;;;3.10;2.63;;;18.50;44.90;;;;;;5085748;28;20044;-43
2022/01/23 14:40:39;;;;;;;4.25;2.80;;;18.50;44.80;;;;;;5085315;28;20119;-45
2022/01/23 14:43:09;;;;;;;3.40;2.28;;;18.40;44.90;;;;;;5085450;28;20074;-44
2022/01/23 14:45:40;;;;;;;2.38;2.05;;;18.30;44.90;;;;;;5091871;28;20035;-43
2022/01/23 14:48:07;;;;;;;3.17;2.38;;;18.30;45.00;;;;;;5094866;28;20025;-43
2022/01/23 14:50:35;;;;;;;2.90;2.40;;;18.20;45.10;;;;;;5085217;28;20531;-45
2022/01/23 14:53:12;;;;;;;2.83;2.20;;;18.20;45.10;;;;;;5067620;28;20082;-43
2022/01/23 14:55:43;;;;;;;2.97;2.20;;;18.20;45.10;;;;;;5085275;28;20040;-45
2022/01/23 14:58:10;;;;;;;2.88;2.22;;;18.10;45.10;;;;;;5085060;28;20029;-43
2022/01/23 15:00:36;;;;;;;3.63;2.72;;;18.00;45.20;;;;;;5098389;28;20165;-44
2022/01/23 15:03:03;;;;;;;3.10;2.40;;;18.00;45.20;;;;;;5065245;28;20021;-45
2022/01/23 15:05:33;;;;;;;2.72;2.20;;;17.90;45.10;;;;;;5065206;28;20033;-43
2022/01/23 15:08:00;;;;;;;2.47;2.28;;;17.80;45.30;;;;;;5064493;28;20055;-43
2022/01/23 15:10:27;;;;;;;1.97;1.50;;;17.80;45.20;;;;;;5094308;28;20028;-44
2022/01/23 15:12:53;;;;;;;2.90;2.28;;;17.70;45.30;;;;;;5085041;28;20049;-46
2022/01/23 15:15:19;;;;;;;2.42;2.10;;;17.70;45.30;;;;;;5084765;28;20115;-45
2022/01/23 15:17:45;;;;;;;2.38;2.17;;;17.60;45.30;;;;;;5085031;28;20021;-46
2022/01/23 15:20:11;;;;;;;3.65;2.50;;;17.60;45.40;;;;;;5084793;28;20033;-44
2022/01/23 15:22:38;;;;;;;2.95;2.38;;;17.60;45.50;;;;;;5084742;28;20045;-43
2022/01/23 15:25:06;;;;;;;2.35;1.73;;;17.60;45.50;;;;;;5085052;28;20024;-44
2022/01/23 15:27:33;;;;;;;2.63;2.00;;;17.50;45.60;;;;;;5084451;28;20552;-44
2022/01/23 15:29:59;;;;;;;2.08;1.88;;;17.40;45.50;;;;;;5084558;28;20028;-44
2022/01/23 15:32:25;;;;;;;3.20;2.60;;;17.40;45.70;;;;;;5065448;28;20037;-43
2022/01/23 15:34:52;;;;;;;2.57;2.30;;;17.30;45.60;;;;;;5064326;28;20104;-45
2022/01/23 15:37:18;;;;;;;2.88;2.25;;;17.30;45.70;;;;;;5064403;28;20025;-45
2022/01/23 15:39:45;;;;;;;4.25;2.30;;;17.20;45.70;;;;;;5071745;28;20016;-43
2022/01/23 15:42:12;;;;;;;2.80;2.50;;;17.20;45.70;;;;;;5084611;28;20027;-45
2022/01/23 15:44:40;;;;;;;;;;;17.20;45.70;;;;;;5084694;28;20033;-43
2022/01/23 15:47:06;;;;;;;3.00;2.15;;;17.10;45.80;;;;;;5084115;28;19904;-43
2022/01/23 15:49:32;;;;;;;2.38;1.85;;;17.10;45.80;;;;;;5084069;28;20031;-44
2022/01/23 15:51:58;;;;;;;2.15;1.90;;;17.00;45.70;;;;;;5084394;28;20366;-43
2022/01/23 15:54:24;;;;;;;2.63;2.25;;;17.00;45.90;;;;;;5065852;28;20056;-45
2022/01/23 15:56:51;;;;;;;3.00;2.38;;;17.00;45.90;;;;;;5084163;28;20055;-44
2022/01/23 15:59:18;;;;;;;2.88;2.30;;;16.90;46.00;;;;;;5083873;28;20028;-44
2022/01/23 16:01:46;;;;;;;2.15;1.95;;;16.80;46.00;;;;;;5071716;28;20037;-43
2022/01/23 16:04:15;;;;;;;2.28;1.90;;;16.90;46.10;;;;;;5063897;28;20521;-44
2022/01/23 16:06:41;;;;;;;2.42;1.92;;;16.80;46.10;;;;;;5063963;28;20021;-45
2022/01/23 16:09:08;;;;;;;2.58;2.00;;;16.80;46.10;;;;;;5068490;28;20477;-43
2022/01/23 16:11:34;;;;;;;2.42;1.90;;;16.80;46.20;;;;;;5083530;28;20040;-43
2022/01/23 16:14:00;;;;;;;2.40;1.90;;;16.80;46.10;;;;;;5083274;28;20044;-43
2022/01/23 16:16:26;;;;;;;2.50;2.00;;;16.80;46.20;;;;;;5083661;28;20525;-43
2022/01/23 16:18:52;;;;;;;2.83;2.08;;;16.70;46.20;;;;;;5083397;28;20087;-43
2022/01/23 16:21:19;;;;;;;2.22;1.95;;;16.60;46.40;;;;;;5065427;28;20052;-44